sensor_id;sensor_type;location;lat;lon;timestamp;temperature;humidity
48666;DHT22;34452;50.796;4.994;2022-07-23T00:00:47;17.00;99.90
48666;DHT22;34452;50.796;4.994;2022-07-23T00:03:13;16.90;99.90
48666;DHT22;34452;50.796;4.994;2022-07-23T00:05:39;16.90;99.90
48666;DHT22;34452;50.796;4.994;2022-07-23T00:08:06;16.90;99.90
48666;DHT22;34452;50.796;4.994;2022-07-23T00:10:32;16.80;99.90
48666;DHT22;34452;50.796;4.994;2022-07-23T00:12:58;16.80;99.90
48666;DHT22;34452;50.796;4.994;2022-07-23T00:15:24;16.70;99.90
48666;DHT22;34452;50.796;4.994;2022-07-23T00:17:49;16.70;99.90
48666;DHT22;34452;50.796;4.994;2022-07-23T00:20:15;16.70;99.90
48666;DHT22;34452;50.796;4.994;2022-07-23T00:23:00;16.80;99.90
48666;DHT22;34452;50.796;4.994;2022-07-23T00:25:27;16.80;99.90
48666;DHT22;34452;50.796;4.994;2022-07-23T00:27:52;16.70;99.90
48666;DHT22;34452;50.796;4.994;2022-07-23T00:30:18;16.70;99.90
48666;DHT22;34452;50.796;4.994;2022-07-23T00:33:04;16.70;99.90
48666;DHT22;34452;50.796;4.994;2022-07-23T00:35:32;16.60;99.90
48666;DHT22;34452;50.796;4.994;2022-07-23T00:37:59;16.50;99.90
48666;DHT22;34452;50.796;4.994;2022-07-23T00:40:26;16.50;99.90
48666;DHT22;34452;50.796;4.994;2022-07-23T00:42:52;16.40;99.90
48666;DHT22;34452;50.796;4.994;2022-07-23T00:45:18;16.40;99.90
48666;DHT22;34452;50.796;4.994;2022-07-23T00:47:44;16.30;99.90
48666;DHT22;34452;50.796;4.994;2022-07-23T00:50:10;16.20;99.90
48666;DHT22;34452;50.796;4.994;2022-07-23T00:52:37;16.20;99.90
48666;DHT22;34452;50.796;4.994;2022-07-23T00:55:05;16.20;99.90
48666;DHT22;34452;50.796;4.994;2022-07-23T00:57:31;16.20;99.90
48666;DHT22;34452;50.796;4.994;2022-07-23T00:59:57;16.20;99.90
48666;DHT22;34452;50.796;4.994;2022-07-23T01:02:24;16.20;99.90
48666;DHT22;34452;50.796;4.994;2022-07-23T01:04:50;16.30;99.90
48666;DHT22;34452;50.796;4.994;2022-07-23T01:07:16;16.20;99.90
48666;DHT22;34452;50.796;4.994;2022-07-23T01:09:44;16.20;99.90
48666;DHT22;34452;50.796;4.994;2022-07-23T01:12:10;16.20;99.90
48666;DHT22;34452;50.796;4.994;2022-07-23T01:14:35;16.10;99.90
48666;DHT22;34452;50.796;4.994;2022-07-23T01:17:01;16.00;99.90
48666;DHT22;34452;50.796;4.994;2022-07-23T01:19:27;15.90;99.90
48666;DHT22;34452;50.796;4.994;2022-07-23T01:21:53;15.90;99.90
48666;DHT22;34452;50.796;4.994;2022-07-23T01:24:20;15.80;99.90
48666;DHT22;34452;50.796;4.994;2022-07-23T01:26:47;15.80;99.90
48666;DHT22;34452;50.796;4.994;2022-07-23T01:29:14;15.70;99.90
48666;DHT22;34452;50.796;4.994;2022-07-23T01:31:40;15.70;99.90
48666;DHT22;34452;50.796;4.994;2022-07-23T01:34:06;15.70;99.90
48666;DHT22;34452;50.796;4.994;2022-07-23T01:36:33;15.70;99.90
48666;DHT22;34452;50.796;4.994;2022-07-23T01:38:59;15.70;99.90
48666;DHT22;34452;50.796;4.994;2022-07-23T01:41:24;15.60;99.90
48666;DHT22;34452;50.796;4.994;2022-07-23T01:43:50;15.70;99.90
48666;DHT22;34452;50.796;4.994;2022-07-23T01:46:16;15.70;99.90
48666;DHT22;34452;50.796;4.994;2022-07-23T01:48:42;15.60;99.90
48666;DHT22;34452;50.796;4.994;2022-07-23T01:51:08;15.60;99.90
48666;DHT22;34452;50.796;4.994;2022-07-23T01:53:34;15.60;99.90
48666;DHT22;34452;50.796;4.994;2022-07-23T01:56:00;15.60;99.90
48666;DHT22;34452;50.796;4.994;2022-07-23T01:58:26;15.60;99.90
48666;DHT22;34452;50.796;4.994;2022-07-23T02:00:54;15.60;99.90
48666;DHT22;34452;50.796;4.994;2022-07-23T02:03:20;15.60;99.90
48666;DHT22;34452;50.796;4.994;2022-07-23T02:05:45;15.50;99.90
48666;DHT22;34452;50.796;4.994;2022-07-23T02:08:11;15.50;99.90
48666;DHT22;34452;50.796;4.994;2022-07-23T02:10:37;15.50;99.90
48666;DHT22;34452;50.796;4.994;2022-07-23T02:13:03;15.50;99.90
48666;DHT22;34452;50.796;4.994;2022-07-23T02:15:29;15.50;99.90
48666;DHT22;34452;50.796;4.994;2022-07-23T02:17:55;15.40;99.90
48666;DHT22;34452;50.796;4.994;2022-07-23T02:20:21;15.30;99.90
48666;DHT22;34452;50.796;4.994;2022-07-23T02:22:47;15.40;99.90
48666;DHT22;34452;50.796;4.994;2022-07-23T02:25:13;15.40;99.90
48666;DHT22;34452;50.796;4.994;2022-07-23T02:27:39;15.30;99.90
48666;DHT22;34452;50.796;4.994;2022-07-23T02:30:06;15.30;99.90
48666;DHT22;34452;50.796;4.994;2022-07-23T02:32:32;15.30;99.90
48666;DHT22;34452;50.796;4.994;2022-07-23T02:34:58;15.30;99.90
48666;DHT22;34452;50.796;4.994;2022-07-23T02:37:24;15.30;99.90
48666;DHT22;34452;50.796;4.994;2022-07-23T02:39:49;15.30;99.90
48666;DHT22;34452;50.796;4.994;2022-07-23T02:42:16;15.30;99.90
48666;DHT22;34452;50.796;4.994;2022-07-23T02:44:41;15.30;99.90
48666;DHT22;34452;50.796;4.994;2022-07-23T02:47:07;15.30;99.90
48666;DHT22;34452;50.796;4.994;2022-07-23T02:49:33;15.20;99.90
48666;DHT22;34452;50.796;4.994;2022-07-23T02:51:59;15.20;99.90
48666;DHT22;34452;50.796;4.994;2022-07-23T02:54:25;15.20;99.90
48666;DHT22;34452;50.796;4.994;2022-07-23T02:56:50;15.20;99.90
48666;DHT22;34452;50.796;4.994;2022-07-23T02:59:17;15.10;99.90
48666;DHT22;34452;50.796;4.994;2022-07-23T03:01:43;15.20;99.90
48666;DHT22;34452;50.796;4.994;2022-07-23T03:04:09;15.10;99.90
48666;DHT22;34452;50.796;4.994;2022-07-23T03:06:35;15.10;99.90
48666;DHT22;34452;50.796;4.994;2022-07-23T03:09:01;15.10;99.90
48666;DHT22;34452;50.796;4.994;2022-07-23T03:11:26;15.00;99.90
48666;DHT22;34452;50.796;4.994;2022-07-23T03:13:52;15.00;99.90
48666;DHT22;34452;50.796;4.994;2022-07-23T03:16:18;15.00;99.90
48666;DHT22;34452;50.796;4.994;2022-07-23T03:18:43;15.00;99.90
48666;DHT22;34452;50.796;4.994;2022-07-23T03:21:09;15.00;99.90
48666;DHT22;34452;50.796;4.994;2022-07-23T03:23:35;15.00;99.90
48666;DHT22;34452;50.796;4.994;2022-07-23T03:26:01;14.90;99.90
48666;DHT22;34452;50.796;4.994;2022-07-23T03:28:26;14.90;99.90
48666;DHT22;34452;50.796;4.994;2022-07-23T03:30:52;14.90;99.90
48666;DHT22;34452;50.796;4.994;2022-07-23T03:33:19;14.90;99.90
48666;DHT22;34452;50.796;4.994;2022-07-23T03:35:45;14.90;99.90
48666;DHT22;34452;50.796;4.994;2022-07-23T03:38:10;14.90;99.90
48666;DHT22;34452;50.796;4.994;2022-07-23T03:40:36;14.90;99.90
48666;DHT22;34452;50.796;4.994;2022-07-23T03:43:02;14.90;99.90
48666;DHT22;34452;50.796;4.994;2022-07-23T03:45:28;14.90;99.90
48666;DHT22;34452;50.796;4.994;2022-07-23T03:47:53;14.90;99.90
48666;DHT22;34452;50.796;4.994;2022-07-23T03:50:19;14.90;99.90
48666;DHT22;34452;50.796;4.994;2022-07-23T03:52:45;14.80;99.90
48666;DHT22;34452;50.796;4.994;2022-07-23T03:55:11;14.70;99.90
48666;DHT22;34452;50.796;4.994;2022-07-23T03:57:37;14.60;99.90
48666;DHT22;34452;50.796;4.994;2022-07-23T04:00:04;14.60;99.90
48666;DHT22;34452;50.796;4.994;2022-07-23T04:02:31;14.60;99.90
48666;DHT22;34452;50.796;4.994;2022-07-23T04:04:57;14.60;99.90
48666;DHT22;34452;50.796;4.994;2022-07-23T04:07:23;14.50;99.90
48666;DHT22;34452;50.796;4.994;2022-07-23T04:09:48;14.50;99.90
48666;DHT22;34452;50.796;4.994;2022-07-23T04:12:14;14.50;99.90
48666;DHT22;34452;50.796;4.994;2022-07-23T04:14:40;14.50;99.90
48666;DHT22;34452;50.796;4.994;2022-07-23T04:17:06;14.50;99.90
48666;DHT22;34452;50.796;4.994;2022-07-23T04:19:31;14.50;99.90
48666;DHT22;34452;50.796;4.994;2022-07-23T04:21:57;14.50;99.90
48666;DHT22;34452;50.796;4.994;2022-07-23T04:24:23;14.60;99.90
48666;DHT22;34452;50.796;4.994;2022-07-23T04:26:48;14.70;99.90
48666;DHT22;34452;50.796;4.994;2022-07-23T04:29:14;14.70;99.90
48666;DHT22;34452;50.796;4.994;2022-07-23T04:31:40;14.60;99.90
48666;DHT22;34452;50.796;4.994;2022-07-23T04:34:06;14.70;99.90
48666;DHT22;34452;50.796;4.994;2022-07-23T04:36:31;14.60;99.90
48666;DHT22;34452;50.796;4.994;2022-07-23T04:38:57;14.70;99.90
48666;DHT22;34452;50.796;4.994;2022-07-23T04:41:23;14.70;99.90
48666;DHT22;34452;50.796;4.994;2022-07-23T04:43:49;14.80;99.90
48666;DHT22;34452;50.796;4.994;2022-07-23T04:46:14;14.90;99.90
48666;DHT22;34452;50.796;4.994;2022-07-23T04:48:40;15.00;99.90
48666;DHT22;34452;50.796;4.994;2022-07-23T04:51:07;15.00;99.90
48666;DHT22;34452;50.796;4.994;2022-07-23T04:53:33;15.20;99.90
48666;DHT22;34452;50.796;4.994;2022-07-23T04:55:59;15.30;99.90
48666;DHT22;34452;50.796;4.994;2022-07-23T04:58:25;15.30;99.90
48666;DHT22;34452;50.796;4.994;2022-07-23T05:00:51;15.40;99.90
48666;DHT22;34452;50.796;4.994;2022-07-23T05:03:17;15.40;99.90
48666;DHT22;34452;50.796;4.994;2022-07-23T05:05:42;15.50;99.90
48666;DHT22;34452;50.796;4.994;2022-07-23T05:08:08;15.50;99.90
48666;DHT22;34452;50.796;4.994;2022-07-23T05:10:34;15.60;99.90
48666;DHT22;34452;50.796;4.994;2022-07-23T05:13:00;15.60;99.90
48666;DHT22;34452;50.796;4.994;2022-07-23T05:15:26;15.70;99.90
48666;DHT22;34452;50.796;4.994;2022-07-23T05:17:51;15.80;99.90
48666;DHT22;34452;50.796;4.994;2022-07-23T05:20:17;15.80;99.90
48666;DHT22;34452;50.796;4.994;2022-07-23T05:22:43;15.90;99.90
48666;DHT22;34452;50.796;4.994;2022-07-23T05:25:09;15.90;99.90
48666;DHT22;34452;50.796;4.994;2022-07-23T05:27:35;15.90;99.90
48666;DHT22;34452;50.796;4.994;2022-07-23T05:30:01;16.00;99.90
48666;DHT22;34452;50.796;4.994;2022-07-23T05:32:26;16.00;99.90
48666;DHT22;34452;50.796;4.994;2022-07-23T05:34:52;16.10;99.90
48666;DHT22;34452;50.796;4.994;2022-07-23T05:37:18;16.10;99.90
48666;DHT22;34452;50.796;4.994;2022-07-23T05:39:43;16.10;99.90
48666;DHT22;34452;50.796;4.994;2022-07-23T05:42:09;16.20;99.90
48666;DHT22;34452;50.796;4.994;2022-07-23T05:44:35;16.20;99.90
48666;DHT22;34452;50.796;4.994;2022-07-23T05:47:01;16.20;99.90
48666;DHT22;34452;50.796;4.994;2022-07-23T05:49:27;16.30;99.90
48666;DHT22;34452;50.796;4.994;2022-07-23T05:51:52;16.30;99.90
48666;DHT22;34452;50.796;4.994;2022-07-23T05:54:18;16.30;99.90
48666;DHT22;34452;50.796;4.994;2022-07-23T05:56:44;16.40;99.90
48666;DHT22;34452;50.796;4.994;2022-07-23T05:59:10;16.50;99.90
48666;DHT22;34452;50.796;4.994;2022-07-23T06:01:37;16.60;99.90
48666;DHT22;34452;50.796;4.994;2022-07-23T06:04:03;16.60;99.90
48666;DHT22;34452;50.796;4.994;2022-07-23T06:06:29;16.80;99.90
48666;DHT22;34452;50.796;4.994;2022-07-23T06:08:54;16.80;99.90
48666;DHT22;34452;50.796;4.994;2022-07-23T06:11:20;16.80;99.90
48666;DHT22;34452;50.796;4.994;2022-07-23T06:13:46;16.80;99.90
48666;DHT22;34452;50.796;4.994;2022-07-23T06:16:11;16.90;99.90
48666;DHT22;34452;50.796;4.994;2022-07-23T06:18:37;17.00;99.90
48666;DHT22;34452;50.796;4.994;2022-07-23T06:21:03;17.00;99.90
48666;DHT22;34452;50.796;4.994;2022-07-23T06:23:29;16.90;99.90
48666;DHT22;34452;50.796;4.994;2022-07-23T06:25:54;17.00;99.90
48666;DHT22;34452;50.796;4.994;2022-07-23T06:28:20;17.00;99.90
48666;DHT22;34452;50.796;4.994;2022-07-23T06:30:46;17.00;99.90
48666;DHT22;34452;50.796;4.994;2022-07-23T06:33:12;17.10;99.90
48666;DHT22;34452;50.796;4.994;2022-07-23T06:35:37;17.10;99.90
48666;DHT22;34452;50.796;4.994;2022-07-23T06:38:03;17.10;99.90
48666;DHT22;34452;50.796;4.994;2022-07-23T06:40:29;17.10;99.90
48666;DHT22;34452;50.796;4.994;2022-07-23T06:42:56;17.20;99.90
48666;DHT22;34452;50.796;4.994;2022-07-23T06:45:22;17.20;99.90
48666;DHT22;34452;50.796;4.994;2022-07-23T06:47:47;17.20;99.90
48666;DHT22;34452;50.796;4.994;2022-07-23T06:50:13;17.40;99.90
48666;DHT22;34452;50.796;4.994;2022-07-23T06:52:39;17.40;99.90
48666;DHT22;34452;50.796;4.994;2022-07-23T06:55:05;17.50;99.90
48666;DHT22;34452;50.796;4.994;2022-07-23T06:57:31;17.60;99.90
48666;DHT22;34452;50.796;4.994;2022-07-23T06:59:56;17.60;99.90
48666;DHT22;34452;50.796;4.994;2022-07-23T07:02:22;17.70;99.90
48666;DHT22;34452;50.796;4.994;2022-07-23T07:04:49;17.80;99.90
48666;DHT22;34452;50.796;4.994;2022-07-23T07:07:15;17.80;99.90
48666;DHT22;34452;50.796;4.994;2022-07-23T07:09:40;17.90;99.90
48666;DHT22;34452;50.796;4.994;2022-07-23T07:12:06;18.00;99.90
48666;DHT22;34452;50.796;4.994;2022-07-23T07:14:32;18.10;99.90
48666;DHT22;34452;50.796;4.994;2022-07-23T07:16:58;18.20;99.90
48666;DHT22;34452;50.796;4.994;2022-07-23T07:19:23;18.30;99.90
48666;DHT22;34452;50.796;4.994;2022-07-23T07:21:49;18.30;99.90
48666;DHT22;34452;50.796;4.994;2022-07-23T07:24:15;18.40;99.90
48666;DHT22;34452;50.796;4.994;2022-07-23T07:26:40;18.40;99.90
48666;DHT22;34452;50.796;4.994;2022-07-23T07:29:06;18.60;99.90
48666;DHT22;34452;50.796;4.994;2022-07-23T07:31:32;18.60;99.90
48666;DHT22;34452;50.796;4.994;2022-07-23T07:33:58;18.70;99.90
48666;DHT22;34452;50.796;4.994;2022-07-23T07:36:24;18.80;99.90
48666;DHT22;34452;50.796;4.994;2022-07-23T07:38:49;18.90;99.90
48666;DHT22;34452;50.796;4.994;2022-07-23T07:41:15;19.00;99.90
48666;DHT22;34452;50.796;4.994;2022-07-23T07:43:41;19.00;99.90
48666;DHT22;34452;50.796;4.994;2022-07-23T07:46:07;19.00;99.90
48666;DHT22;34452;50.796;4.994;2022-07-23T07:48:37;19.00;99.90
48666;DHT22;34452;50.796;4.994;2022-07-23T07:51:04;19.00;99.90
48666;DHT22;34452;50.796;4.994;2022-07-23T07:53:30;19.10;99.90
48666;DHT22;34452;50.796;4.994;2022-07-23T07:55:56;19.20;99.90
48666;DHT22;34452;50.796;4.994;2022-07-23T07:58:21;19.30;99.90
48666;DHT22;34452;50.796;4.994;2022-07-23T08:00:47;19.30;99.90
48666;DHT22;34452;50.796;4.994;2022-07-23T08:03:13;19.40;99.90
48666;DHT22;34452;50.796;4.994;2022-07-23T08:05:39;19.40;99.90
48666;DHT22;34452;50.796;4.994;2022-07-23T08:08:05;19.50;99.90
48666;DHT22;34452;50.796;4.994;2022-07-23T08:10:30;19.60;99.90
48666;DHT22;34452;50.796;4.994;2022-07-23T08:12:58;19.70;99.90
48666;DHT22;34452;50.796;4.994;2022-07-23T08:15:26;19.70;99.90
48666;DHT22;34452;50.796;4.994;2022-07-23T08:17:52;19.80;99.90
48666;DHT22;34452;50.796;4.994;2022-07-23T08:20:20;19.90;99.90
48666;DHT22;34452;50.796;4.994;2022-07-23T08:22:50;20.00;99.90
48666;DHT22;34452;50.796;4.994;2022-07-23T08:28:03;20.10;99.90
48666;DHT22;34452;50.796;4.994;2022-07-23T08:30:29;20.20;99.90
48666;DHT22;34452;50.796;4.994;2022-07-23T08:32:59;20.40;99.90
48666;DHT22;34452;50.796;4.994;2022-07-23T08:35:29;20.40;99.90
48666;DHT22;34452;50.796;4.994;2022-07-23T08:37:56;20.50;99.90
48666;DHT22;34452;50.796;4.994;2022-07-23T08:40:22;20.50;99.90
48666;DHT22;34452;50.796;4.994;2022-07-23T08:42:49;20.60;99.90
48666;DHT22;34452;50.796;4.994;2022-07-23T08:45:18;20.50;99.90
48666;DHT22;34452;50.796;4.994;2022-07-23T08:47:48;20.50;99.90
48666;DHT22;34452;50.796;4.994;2022-07-23T08:50:14;20.60;99.90
48666;DHT22;34452;50.796;4.994;2022-07-23T08:52:40;20.70;99.90
48666;DHT22;34452;50.796;4.994;2022-07-23T08:55:07;20.80;99.90
48666;DHT22;34452;50.796;4.994;2022-07-23T08:57:33;20.90;99.90
48666;DHT22;34452;50.796;4.994;2022-07-23T08:59:59;20.90;99.90
48666;DHT22;34452;50.796;4.994;2022-07-23T09:02:25;20.90;99.90
48666;DHT22;34452;50.796;4.994;2022-07-23T09:04:50;21.00;99.90
48666;DHT22;34452;50.796;4.994;2022-07-23T09:07:16;21.00;99.90
48666;DHT22;34452;50.796;4.994;2022-07-23T09:09:42;21.00;99.90
48666;DHT22;34452;50.796;4.994;2022-07-23T09:12:09;21.10;99.90
48666;DHT22;34452;50.796;4.994;2022-07-23T09:14:48;21.10;99.90
48666;DHT22;34452;50.796;4.994;2022-07-23T09:17:53;21.20;99.90
48666;DHT22;34452;50.796;4.994;2022-07-23T09:20:20;21.40;99.90
48666;DHT22;34452;50.796;4.994;2022-07-23T09:22:47;21.40;99.90
48666;DHT22;34452;50.796;4.994;2022-07-23T09:25:16;21.40;99.90
48666;DHT22;34452;50.796;4.994;2022-07-23T09:28:00;21.40;99.90
48666;DHT22;34452;50.796;4.994;2022-07-23T09:30:30;21.50;99.90
48666;DHT22;34452;50.796;4.994;2022-07-23T09:33:14;21.60;99.90
48666;DHT22;34452;50.796;4.994;2022-07-23T09:35:54;21.80;99.90
48666;DHT22;34452;50.796;4.994;2022-07-23T09:38:21;22.00;99.90
48666;DHT22;34452;50.796;4.994;2022-07-23T09:41:05;22.00;99.90
48666;DHT22;34452;50.796;4.994;2022-07-23T09:43:31;22.10;99.90
48666;DHT22;34452;50.796;4.994;2022-07-23T09:46:17;22.10;99.90
48666;DHT22;34452;50.796;4.994;2022-07-23T09:48:43;22.20;99.90
48666;DHT22;34452;50.796;4.994;2022-07-23T09:51:09;22.30;99.90
48666;DHT22;34452;50.796;4.994;2022-07-23T09:53:34;22.40;99.90
48666;DHT22;34452;50.796;4.994;2022-07-23T09:56:00;22.50;99.90
48666;DHT22;34452;50.796;4.994;2022-07-23T09:58:27;22.50;99.90
48666;DHT22;34452;50.796;4.994;2022-07-23T10:00:54;22.50;99.90
48666;DHT22;34452;50.796;4.994;2022-07-23T10:03:21;22.50;99.90
48666;DHT22;34452;50.796;4.994;2022-07-23T10:05:50;22.70;99.90
48666;DHT22;34452;50.796;4.994;2022-07-23T10:08:18;22.80;99.90
48666;DHT22;34452;50.796;4.994;2022-07-23T10:10:46;22.90;98.40
48666;DHT22;34452;50.796;4.994;2022-07-23T10:13:11;22.80;98.40
48666;DHT22;34452;50.796;4.994;2022-07-23T10:15:40;22.90;98.30
48666;DHT22;34452;50.796;4.994;2022-07-23T10:18:06;22.90;96.40
48666;DHT22;34452;50.796;4.994;2022-07-23T10:20:32;22.90;96.10
48666;DHT22;34452;50.796;4.994;2022-07-23T10:23:05;23.00;95.70
48666;DHT22;34452;50.796;4.994;2022-07-23T10:25:46;23.10;95.50
48666;DHT22;34452;50.796;4.994;2022-07-23T10:40:22;23.50;94.50
48666;DHT22;34452;50.796;4.994;2022-07-23T10:42:50;23.60;94.20
48666;DHT22;34452;50.796;4.994;2022-07-23T10:45:36;23.60;94.70
48666;DHT22;34452;50.796;4.994;2022-07-23T10:48:14;23.60;93.60
48666;DHT22;34452;50.796;4.994;2022-07-23T10:50:41;23.60;93.20
48666;DHT22;34452;50.796;4.994;2022-07-23T10:53:10;23.80;93.60
48666;DHT22;34452;50.796;4.994;2022-07-23T10:55:39;24.10;93.80
48666;DHT22;34452;50.796;4.994;2022-07-23T10:58:05;24.20;93.10
48666;DHT22;34452;50.796;4.994;2022-07-23T11:00:33;24.30;91.80
48666;DHT22;34452;50.796;4.994;2022-07-23T11:03:01;24.40;90.80
48666;DHT22;34452;50.796;4.994;2022-07-23T11:10:48;24.40;90.00
48666;DHT22;34452;50.796;4.994;2022-07-23T11:13:45;24.60;87.40
48666;DHT22;34452;50.796;4.994;2022-07-23T11:16:30;24.60;82.30
48666;DHT22;34452;50.796;4.994;2022-07-23T11:18:58;24.70;82.30
48666;DHT22;34452;50.796;4.994;2022-07-23T11:24:11;24.90;80.30
48666;DHT22;34452;50.796;4.994;2022-07-23T11:26:50;25.10;80.10
48666;DHT22;34452;50.796;4.994;2022-07-23T11:37:06;25.10;76.10
48666;DHT22;34452;50.796;4.994;2022-07-23T11:39:33;25.20;74.60
48666;DHT22;34452;50.796;4.994;2022-07-23T11:42:00;25.30;77.40
48666;DHT22;34452;50.796;4.994;2022-07-23T11:44:46;25.50;73.80
48666;DHT22;34452;50.796;4.994;2022-07-23T11:47:12;25.50;69.00
48666;DHT22;34452;50.796;4.994;2022-07-23T11:49:39;25.60;73.00
48666;DHT22;34452;50.796;4.994;2022-07-23T11:52:16;25.70;70.80
48666;DHT22;34452;50.796;4.994;2022-07-23T11:55:03;25.80;70.60
48666;DHT22;34452;50.796;4.994;2022-07-23T11:57:32;25.80;68.50
48666;DHT22;34452;50.796;4.994;2022-07-23T12:02:46;26.10;70.40
48666;DHT22;34452;50.796;4.994;2022-07-23T12:05:15;26.30;69.80
48666;DHT22;34452;50.796;4.994;2022-07-23T12:07:43;26.30;68.80
48666;DHT22;34452;50.796;4.994;2022-07-23T12:12:52;26.30;68.50
48666;DHT22;34452;50.796;4.994;2022-07-23T12:15:21;26.60;71.00
48666;DHT22;34452;50.796;4.994;2022-07-23T12:17:48;26.80;69.80
48666;DHT22;34452;50.796;4.994;2022-07-23T12:20:18;26.90;69.10
48666;DHT22;34452;50.796;4.994;2022-07-23T12:22:47;26.90;65.60
48666;DHT22;34452;50.796;4.994;2022-07-23T12:25:17;26.80;65.80
48666;DHT22;34452;50.796;4.994;2022-07-23T12:27:44;26.60;63.30
48666;DHT22;34452;50.796;4.994;2022-07-23T12:30:26;26.50;63.20
48666;DHT22;34452;50.796;4.994;2022-07-23T12:32:54;26.50;64.00
48666;DHT22;34452;50.796;4.994;2022-07-23T12:35:21;26.50;62.90
48666;DHT22;34452;50.796;4.994;2022-07-23T12:37:49;26.50;61.90
48666;DHT22;34452;50.796;4.994;2022-07-23T12:40:20;26.50;62.50
48666;DHT22;34452;50.796;4.994;2022-07-23T12:42:48;26.60;62.40
48666;DHT22;34452;50.796;4.994;2022-07-23T12:45:14;26.50;63.10
48666;DHT22;34452;50.796;4.994;2022-07-23T12:47:52;26.70;64.40
48666;DHT22;34452;50.796;4.994;2022-07-23T12:56:12;27.40;60.00
48666;DHT22;34452;50.796;4.994;2022-07-23T13:01:29;27.60;58.70
48666;DHT22;34452;50.796;4.994;2022-07-23T13:04:16;27.50;59.80
48666;DHT22;34452;50.796;4.994;2022-07-23T13:06:46;27.60;59.60
48666;DHT22;34452;50.796;4.994;2022-07-23T13:09:16;27.50;58.20
48666;DHT22;34452;50.796;4.994;2022-07-23T13:11:43;27.50;58.30
48666;DHT22;34452;50.796;4.994;2022-07-23T13:14:09;27.50;59.10
48666;DHT22;34452;50.796;4.994;2022-07-23T13:16:34;27.60;58.20
48666;DHT22;34452;50.796;4.994;2022-07-23T13:19:01;27.80;59.00
48666;DHT22;34452;50.796;4.994;2022-07-23T13:21:27;27.20;58.10
48666;DHT22;34452;50.796;4.994;2022-07-23T13:23:53;26.70;58.70
48666;DHT22;34452;50.796;4.994;2022-07-23T13:26:19;26.30;59.80
48666;DHT22;34452;50.796;4.994;2022-07-23T13:28:46;26.60;63.30
48666;DHT22;34452;50.796;4.994;2022-07-23T13:31:12;27.00;62.40
48666;DHT22;34452;50.796;4.994;2022-07-23T13:33:38;27.40;60.10
48666;DHT22;34452;50.796;4.994;2022-07-23T13:36:04;27.60;58.60
48666;DHT22;34452;50.796;4.994;2022-07-23T13:38:30;27.80;58.60
48666;DHT22;34452;50.796;4.994;2022-07-23T13:40:55;28.00;58.30
48666;DHT22;34452;50.796;4.994;2022-07-23T13:43:23;27.90;62.30
48666;DHT22;34452;50.796;4.994;2022-07-23T13:45:50;27.90;57.80
48666;DHT22;34452;50.796;4.994;2022-07-23T13:48:17;27.70;57.70
48666;DHT22;34452;50.796;4.994;2022-07-23T13:50:45;27.40;56.60
48666;DHT22;34452;50.796;4.994;2022-07-23T13:53:14;27.50;56.90
48666;DHT22;34452;50.796;4.994;2022-07-23T13:55:41;27.40;58.70
48666;DHT22;34452;50.796;4.994;2022-07-23T13:58:08;27.30;57.00
48666;DHT22;34452;50.796;4.994;2022-07-23T14:00:36;27.30;57.90
48666;DHT22;34452;50.796;4.994;2022-07-23T14:03:02;27.50;57.70
48666;DHT22;34452;50.796;4.994;2022-07-23T14:05:28;27.70;57.70
48666;DHT22;34452;50.796;4.994;2022-07-23T14:07:54;27.90;57.90
48666;DHT22;34452;50.796;4.994;2022-07-23T14:10:21;28.10;57.40
48666;DHT22;34452;50.796;4.994;2022-07-23T14:12:48;28.10;54.70
48666;DHT22;34452;50.796;4.994;2022-07-23T14:15:14;28.30;57.90
48666;DHT22;34452;50.796;4.994;2022-07-23T14:17:41;28.30;55.20
48666;DHT22;34452;50.796;4.994;2022-07-23T14:20:08;28.30;53.70
48666;DHT22;34452;50.796;4.994;2022-07-23T14:22:34;28.30;55.50
48666;DHT22;34452;50.796;4.994;2022-07-23T14:24:59;28.20;55.60
48666;DHT22;34452;50.796;4.994;2022-07-23T14:27:27;28.20;53.90
48666;DHT22;34452;50.796;4.994;2022-07-23T14:29:53;28.10;55.80
48666;DHT22;34452;50.796;4.994;2022-07-23T14:32:19;27.70;55.20
48666;DHT22;34452;50.796;4.994;2022-07-23T14:34:45;27.40;57.10
48666;DHT22;34452;50.796;4.994;2022-07-23T14:37:11;27.20;58.10
48666;DHT22;34452;50.796;4.994;2022-07-23T14:39:38;27.00;58.80
48666;DHT22;34452;50.796;4.994;2022-07-23T14:42:05;26.90;60.50
48666;DHT22;34452;50.796;4.994;2022-07-23T14:44:31;26.80;60.80
48666;DHT22;34452;50.796;4.994;2022-07-23T14:46:56;26.90;61.80
48666;DHT22;34452;50.796;4.994;2022-07-23T14:49:22;27.40;62.90
48666;DHT22;34452;50.796;4.994;2022-07-23T14:51:47;27.60;58.10
48666;DHT22;34452;50.796;4.994;2022-07-23T14:54:13;27.60;57.70
48666;DHT22;34452;50.796;4.994;2022-07-23T14:56:40;27.80;57.30
48666;DHT22;34452;50.796;4.994;2022-07-23T14:59:06;28.00;56.90
48666;DHT22;34452;50.796;4.994;2022-07-23T15:01:32;27.90;56.20
48666;DHT22;34452;50.796;4.994;2022-07-23T15:03:57;27.70;56.60
48666;DHT22;34452;50.796;4.994;2022-07-23T15:06:23;27.80;56.70
48666;DHT22;34452;50.796;4.994;2022-07-23T15:08:49;27.90;56.10
48666;DHT22;34452;50.796;4.994;2022-07-23T15:11:15;28.10;55.90
48666;DHT22;34452;50.796;4.994;2022-07-23T15:13:41;28.40;55.60
48666;DHT22;34452;50.796;4.994;2022-07-23T15:16:07;28.50;52.80
48666;DHT22;34452;50.796;4.994;2022-07-23T15:18:33;28.50;55.80
48666;DHT22;34452;50.796;4.994;2022-07-23T15:20:59;28.60;53.80
48666;DHT22;34452;50.796;4.994;2022-07-23T15:23:26;28.60;54.80
48666;DHT22;34452;50.796;4.994;2022-07-23T15:25:53;28.60;55.60
48666;DHT22;34452;50.796;4.994;2022-07-23T15:28:19;28.80;55.80
48666;DHT22;34452;50.796;4.994;2022-07-23T15:30:45;29.00;56.50
48666;DHT22;34452;50.796;4.994;2022-07-23T15:33:10;29.20;52.20
48666;DHT22;34452;50.796;4.994;2022-07-23T15:35:36;29.40;54.40
48666;DHT22;34452;50.796;4.994;2022-07-23T15:38:01;29.70;52.60
48666;DHT22;34452;50.796;4.994;2022-07-23T15:40:27;30.00;54.20
48666;DHT22;34452;50.796;4.994;2022-07-23T15:42:53;30.80;50.60
48666;DHT22;34452;50.796;4.994;2022-07-23T15:45:19;31.50;50.40
48666;DHT22;34452;50.796;4.994;2022-07-23T15:47:47;32.20;51.30
48666;DHT22;34452;50.796;4.994;2022-07-23T15:50:13;32.50;48.20
48666;DHT22;34452;50.796;4.994;2022-07-23T15:52:39;32.90;49.70
48666;DHT22;34452;50.796;4.994;2022-07-23T15:55:05;33.20;45.40
48666;DHT22;34452;50.796;4.994;2022-07-23T15:57:31;33.40;47.10
48666;DHT22;34452;50.796;4.994;2022-07-23T15:59:56;33.50;44.40
48666;DHT22;34452;50.796;4.994;2022-07-23T16:02:23;33.60;44.00
48666;DHT22;34452;50.796;4.994;2022-07-23T16:04:49;33.90;43.40
48666;DHT22;34452;50.796;4.994;2022-07-23T16:07:17;34.30;43.10
48666;DHT22;34452;50.796;4.994;2022-07-23T16:09:43;34.40;41.90
48666;DHT22;34452;50.796;4.994;2022-07-23T16:12:09;34.60;41.20
48666;DHT22;34452;50.796;4.994;2022-07-23T16:14:35;34.40;41.50